sensor_id;sensor_type;location;lat;lon;timestamp;pressure;altitude;pressure_sealevel;temperature;humidity
71361;BME280;59166;48.908;1.870;2023-08-06T00:04:51;99814.19;;;13.75;100.00
71361;BME280;59166;48.908;1.870;2023-08-06T00:09:51;99813.69;;;13.73;100.00
71361;BME280;59166;48.908;1.870;2023-08-06T00:14:52;99822.13;;;13.72;100.00
71361;BME280;59166;48.908;1.870;2023-08-06T00:19:54;99835.19;;;13.70;100.00
71361;BME280;59166;48.908;1.870;2023-08-06T00:24:55;99832.16;;;13.71;100.00
71361;BME280;59166;48.908;1.870;2023-08-06T00:29:56;99836.84;;;13.66;100.00
71361;BME280;59166;48.908;1.870;2023-08-06T00:34:58;99846.28;;;13.68;100.00
71361;BME280;59166;48.908;1.870;2023-08-06T00:39:58;99862.88;;;13.67;100.00
71361;BME280;59166;48.908;1.870;2023-08-06T00:44:59;99864.28;;;13.64;100.00
71361;BME280;59166;48.908;1.870;2023-08-06T00:50:01;99872.44;;;13.64;100.00
71361;BME280;59166;48.908;1.870;2023-08-06T00:55:02;99877.03;;;13.64;100.00
71361;BME280;59166;48.908;1.870;2023-08-06T01:00:03;99874.91;;;13.61;100.00
71361;BME280;59166;48.908;1.870;2023-08-06T01:05:06;99885.47;;;13.62;100.00
71361;BME280;59166;48.908;1.870;2023-08-06T01:10:19;99890.06;;;13.62;100.00
71361;BME280;59166;48.908;1.870;2023-08-06T01:15:27;99903.13;;;13.60;100.00
71361;BME280;59166;48.908;1.870;2023-08-06T01:20:30;99908.00;;;13.63;100.00
71361;BME280;59166;48.908;1.870;2023-08-06T01:25:34;99916.13;;;13.63;100.00
71361;BME280;59166;48.908;1.870;2023-08-06T01:30:39;99918.03;;;13.62;100.00
71361;BME280;59166;48.908;1.870;2023-08-06T01:35:43;99930.22;;;13.65;100.00
71361;BME280;59166;48.908;1.870;2023-08-06T01:40:44;99937.78;;;13.68;100.00
71361;BME280;59166;48.908;1.870;2023-08-06T01:45:45;99944.84;;;13.69;100.00
71361;BME280;59166;48.908;1.870;2023-08-06T01:50:47;99945.66;;;13.69;100.00
71361;BME280;59166;48.908;1.870;2023-08-06T01:55:48;99968.75;;;13.67;100.00
71361;BME280;59166;48.908;1.870;2023-08-06T02:00:48;99977.97;;;13.66;100.00
71361;BME280;59166;48.908;1.870;2023-08-06T02:05:50;99974.75;;;13.64;100.00
71361;BME280;59166;48.908;1.870;2023-08-06T02:10:51;99991.06;;;13.59;100.00
71361;BME280;59166;48.908;1.870;2023-08-06T02:15:51;99993.03;;;13.53;100.00
71361;BME280;59166;48.908;1.870;2023-08-06T02:20:57;99985.47;;;13.50;100.00
71361;BME280;59166;48.908;1.870;2023-08-06T02:25:59;99997.41;;;13.49;100.00
71361;BME280;59166;48.908;1.870;2023-08-06T02:31:00;100004.75;;;13.49;100.00
71361;BME280;59166;48.908;1.870;2023-08-06T02:36:03;100002.28;;;13.52;100.00
71361;BME280;59166;48.908;1.870;2023-08-06T02:41:03;100009.59;;;13.52;100.00
71361;BME280;59166;48.908;1.870;2023-08-06T02:46:04;100015.03;;;13.52;100.00
71361;BME280;59166;48.908;1.870;2023-08-06T02:51:06;100013.47;;;13.46;100.00
71361;BME280;59166;48.908;1.870;2023-08-06T02:56:07;100028.13;;;13.45;100.00
71361;BME280;59166;48.908;1.870;2023-08-06T03:01:07;100032.47;;;13.46;100.00
71361;BME280;59166;48.908;1.870;2023-08-06T03:06:09;100038.41;;;13.48;100.00
71361;BME280;59166;48.908;1.870;2023-08-06T03:11:10;100033.03;;;13.43;100.00
71361;BME280;59166;48.908;1.870;2023-08-06T03:16:11;100027.13;;;13.35;100.00
71361;BME280;59166;48.908;1.870;2023-08-06T03:21:13;100028.78;;;13.31;100.00
71361;BME280;59166;48.908;1.870;2023-08-06T03:26:13;100035.34;;;13.25;100.00
71361;BME280;59166;48.908;1.870;2023-08-06T03:31:14;100044.88;;;13.23;100.00
71361;BME280;59166;48.908;1.870;2023-08-06T03:36:16;100049.00;;;13.15;100.00
71361;BME280;59166;48.908;1.870;2023-08-06T03:41:16;100038.22;;;13.05;100.00
71361;BME280;59166;48.908;1.870;2023-08-06T03:46:17;100038.81;;;13.02;100.00
71361;BME280;59166;48.908;1.870;2023-08-06T03:51:19;100054.50;;;13.05;100.00
71361;BME280;59166;48.908;1.870;2023-08-06T03:56:20;100060.19;;;13.04;100.00
71361;BME280;59166;48.908;1.870;2023-08-06T04:01:20;100066.41;;;13.09;100.00
71361;BME280;59166;48.908;1.870;2023-08-06T04:06:22;100072.31;;;13.16;100.00
71361;BME280;59166;48.908;1.870;2023-08-06T04:11:23;100075.81;;;13.22;100.00
71361;BME280;59166;48.908;1.870;2023-08-06T04:16:23;100091.00;;;13.23;100.00
71361;BME280;59166;48.908;1.870;2023-08-06T04:21:25;100095.59;;;13.22;100.00
71361;BME280;59166;48.908;1.870;2023-08-06T04:26:26;100101.63;;;13.14;100.00
71361;BME280;59166;48.908;1.870;2023-08-06T04:31:28;100111.44;;;13.10;100.00
71361;BME280;59166;48.908;1.870;2023-08-06T04:36:31;100117.94;;;13.09;100.00
71361;BME280;59166;48.908;1.870;2023-08-06T04:41:31;100129.06;;;13.08;100.00
71361;BME280;59166;48.908;1.870;2023-08-06T04:46:32;100139.06;;;13.12;100.00
71361;BME280;59166;48.908;1.870;2023-08-06T04:51:34;100138.81;;;13.14;100.00
71361;BME280;59166;48.908;1.870;2023-08-06T04:56:34;100146.63;;;13.15;100.00
71361;BME280;59166;48.908;1.870;2023-08-06T05:01:35;100161.84;;;13.16;100.00
71361;BME280;59166;48.908;1.870;2023-08-06T05:06:37;100177.56;;;13.14;100.00
71361;BME280;59166;48.908;1.870;2023-08-06T05:11:38;100173.50;;;13.12;100.00
71361;BME280;59166;48.908;1.870;2023-08-06T05:16:39;100186.00;;;13.08;100.00
71361;BME280;59166;48.908;1.870;2023-08-06T05:21:40;100208.00;;;13.06;100.00
71361;BME280;59166;48.908;1.870;2023-08-06T05:26:41;100213.13;;;13.08;100.00
71361;BME280;59166;48.908;1.870;2023-08-06T05:31:42;100229.41;;;13.08;100.00
71361;BME280;59166;48.908;1.870;2023-08-06T05:36:44;100239.16;;;13.04;100.00
71361;BME280;59166;48.908;1.870;2023-08-06T05:41:44;100237.28;;;13.09;100.00
71361;BME280;59166;48.908;1.870;2023-08-06T05:46:45;100243.47;;;13.15;100.00
71361;BME280;59166;48.908;1.870;2023-08-06T05:51:47;100245.09;;;13.16;100.00
71361;BME280;59166;48.908;1.870;2023-08-06T05:56:48;100257.88;;;13.10;100.00
71361;BME280;59166;48.908;1.870;2023-08-06T06:01:48;100249.19;;;13.08;100.00
71361;BME280;59166;48.908;1.870;2023-08-06T06:06:50;100262.75;;;13.13;100.00
71361;BME280;59166;48.908;1.870;2023-08-06T06:11:51;100269.50;;;13.16;100.00
71361;BME280;59166;48.908;1.870;2023-08-06T06:16:52;100281.94;;;13.27;100.00
71361;BME280;59166;48.908;1.870;2023-08-06T06:21:54;100292.75;;;13.37;100.00
71361;BME280;59166;48.908;1.870;2023-08-06T06:26:54;100297.56;;;13.45;100.00
71361;BME280;59166;48.908;1.870;2023-08-06T06:31:55;100304.03;;;13.59;100.00
71361;BME280;59166;48.908;1.870;2023-08-06T06:36:57;100320.13;;;13.95;100.00
71361;BME280;59166;48.908;1.870;2023-08-06T06:41:58;100305.50;;;13.90;100.00
71361;BME280;59166;48.908;1.870;2023-08-06T06:46:58;100322.91;;;13.84;100.00
71361;BME280;59166;48.908;1.870;2023-08-06T06:52:00;100318.38;;;13.70;100.00
71361;BME280;59166;48.908;1.870;2023-08-06T06:57:01;100312.22;;;13.54;100.00
71361;BME280;59166;48.908;1.870;2023-08-06T07:02:02;100322.28;;;13.44;100.00
71361;BME280;59166;48.908;1.870;2023-08-06T07:07:04;100335.31;;;13.47;100.00
71361;BME280;59166;48.908;1.870;2023-08-06T07:12:05;100344.16;;;13.72;100.00
71361;BME280;59166;48.908;1.870;2023-08-06T07:17:06;100343.94;;;14.08;100.00
71361;BME280;59166;48.908;1.870;2023-08-06T07:22:08;100340.03;;;14.19;100.00
71361;BME280;59166;48.908;1.870;2023-08-06T07:27:08;100359.59;;;14.21;100.00
71361;BME280;59166;48.908;1.870;2023-08-06T07:32:09;100364.34;;;14.39;100.00
71361;BME280;59166;48.908;1.870;2023-08-06T07:37:11;100375.34;;;14.58;100.00
71361;BME280;59166;48.908;1.870;2023-08-06T07:42:11;100369.44;;;14.79;100.00
71361;BME280;59166;48.908;1.870;2023-08-06T07:47:12;100372.19;;;15.08;99.67
71361;BME280;59166;48.908;1.870;2023-08-06T07:52:14;100374.06;;;15.36;97.51
71361;BME280;59166;48.908;1.870;2023-08-06T07:57:15;100373.84;;;15.52;92.53
71361;BME280;59166;48.908;1.870;2023-08-06T08:02:15;100385.19;;;15.40;98.62
71361;BME280;59166;48.908;1.870;2023-08-06T08:07:18;100381.88;;;15.19;97.37
71361;BME280;59166;48.908;1.870;2023-08-06T08:12:18;100381.41;;;15.36;96.01
71361;BME280;59166;48.908;1.870;2023-08-06T08:17:19;100388.78;;;15.78;91.49
71361;BME280;59166;48.908;1.870;2023-08-06T08:22:21;100402.06;;;16.03;89.40
71361;BME280;59166;48.908;1.870;2023-08-06T08:27:21;100413.09;;;15.93;94.38
71361;BME280;59166;48.908;1.870;2023-08-06T08:32:22;100404.34;;;15.54;90.20
71361;BME280;59166;48.908;1.870;2023-08-06T08:37:25;100427.81;;;15.92;91.02
71361;BME280;59166;48.908;1.870;2023-08-06T08:42:26;100418.31;;;16.13;89.96
71361;BME280;59166;48.908;1.870;2023-08-06T08:47:27;100441.66;;;16.19;84.55
71361;BME280;59166;48.908;1.870;2023-08-06T08:52:30;100445.50;;;16.37;89.50
71361;BME280;59166;48.908;1.870;2023-08-06T08:57:32;100445.09;;;16.25;88.04
71361;BME280;59166;48.908;1.870;2023-08-06T09:02:33;100443.00;;;15.98;82.56
71361;BME280;59166;48.908;1.870;2023-08-06T09:07:42;100436.59;;;16.31;82.38
71361;BME280;59166;48.908;1.870;2023-08-06T09:12:43;100445.94;;;16.95;76.39
71361;BME280;59166;48.908;1.870;2023-08-06T09:17:45;100456.41;;;17.53;75.61
71361;BME280;59166;48.908;1.870;2023-08-06T09:22:47;100454.72;;;18.33;73.81
71361;BME280;59166;48.908;1.870;2023-08-06T09:27:47;100457.94;;;18.35;71.91
71361;BME280;59166;48.908;1.870;2023-08-06T09:32:48;100450.00;;;17.71;76.35
71361;BME280;59166;48.908;1.870;2023-08-06T09:37:50;100454.03;;;17.00;75.20
71361;BME280;59166;48.908;1.870;2023-08-06T09:42:51;100462.97;;;18.20;77.38
71361;BME280;59166;48.908;1.870;2023-08-06T09:47:55;100472.94;;;18.96;69.01
71361;BME280;59166;48.908;1.870;2023-08-06T09:52:58;100463.53;;;18.66;67.07
71361;BME280;59166;48.908;1.870;2023-08-06T09:57:59;100480.19;;;18.20;74.67
71361;BME280;59166;48.908;1.870;2023-08-06T10:03:00;100472.03;;;18.15;70.44
71361;BME280;59166;48.908;1.870;2023-08-06T10:08:03;100474.31;;;18.00;71.80
71361;BME280;59166;48.908;1.870;2023-08-06T10:13:06;100478.06;;;17.63;72.18
71361;BME280;59166;48.908;1.870;2023-08-06T10:18:08;100475.41;;;18.26;74.48
71361;BME280;59166;48.908;1.870;2023-08-06T10:23:10;100491.34;;;19.04;70.72
71361;BME280;59166;48.908;1.870;2023-08-06T10:28:11;100490.78;;;18.71;68.45
71361;BME280;59166;48.908;1.870;2023-08-06T10:33:12;100495.94;;;18.51;70.23
71361;BME280;59166;48.908;1.870;2023-08-06T10:38:15;100502.75;;;18.26;68.42
71361;BME280;59166;48.908;1.870;2023-08-06T10:43:25;100502.34;;;17.78;70.94
71361;BME280;59166;48.908;1.870;2023-08-06T10:48:29;100496.56;;;17.52;74.48
71361;BME280;59166;48.908;1.870;2023-08-06T10:53:31;100510.91;;;17.44;72.74
71361;BME280;59166;48.908;1.870;2023-08-06T10:58:32;100520.78;;;17.86;76.14
71361;BME280;59166;48.908;1.870;2023-08-06T11:03:33;100509.94;;;18.71;71.84
71361;BME280;59166;48.908;1.870;2023-08-06T11:08:36;100512.81;;;18.53;69.26
71361;BME280;59166;48.908;1.870;2023-08-06T11:13:37;100519.06;;;18.04;69.68
71361;BME280;59166;48.908;1.870;2023-08-06T11:18:38;100514.00;;;17.97;74.52
71361;BME280;59166;48.908;1.870;2023-08-06T11:23:41;100521.09;;;18.25;71.71
71361;BME280;59166;48.908;1.870;2023-08-06T11:28:42;100522.53;;;18.59;70.51
71361;BME280;59166;48.908;1.870;2023-08-06T11:33:43;100515.81;;;18.65;70.90
71361;BME280;59166;48.908;1.870;2023-08-06T11:38:45;100520.13;;;18.57;70.52
71361;BME280;59166;48.908;1.870;2023-08-06T11:43:46;100527.53;;;18.43;69.68
71361;BME280;59166;48.908;1.870;2023-08-06T11:48:51;100528.28;;;18.71;70.08
71361;BME280;59166;48.908;1.870;2023-08-06T11:53:55;100530.78;;;18.81;67.59
71361;BME280;59166;48.908;1.870;2023-08-06T11:58:55;100521.28;;;18.65;69.98
71361;BME280;59166;48.908;1.870;2023-08-06T12:03:58;100523.63;;;18.71;67.94
71361;BME280;59166;48.908;1.870;2023-08-06T12:09:00;100527.41;;;19.42;69.18
71361;BME280;59166;48.908;1.870;2023-08-06T12:14:01;100515.63;;;19.19;65.46
71361;BME280;59166;48.908;1.870;2023-08-06T12:19:02;100534.91;;;18.92;69.75
71361;BME280;59166;48.908;1.870;2023-08-06T12:24:04;100530.94;;;18.62;69.17
71361;BME280;59166;48.908;1.870;2023-08-06T12:29:05;100522.81;;;18.21;68.01
71361;BME280;59166;48.908;1.870;2023-08-06T12:34:05;100536.25;;;17.90;70.81
71361;BME280;59166;48.908;1.870;2023-08-06T12:39:07;100535.91;;;17.65;69.87
71361;BME280;59166;48.908;1.870;2023-08-06T12:44:08;100527.31;;;17.58;72.93
71361;BME280;59166;48.908;1.870;2023-08-06T12:49:08;100534.03;;;17.79;73.46
71361;BME280;59166;48.908;1.870;2023-08-06T12:54:10;100532.41;;;17.78;73.70
71361;BME280;59166;48.908;1.870;2023-08-06T12:59:11;100540.81;;;17.81;74.04
71361;BME280;59166;48.908;1.870;2023-08-06T13:04:12;100536.88;;;18.28;74.41
71361;BME280;59166;48.908;1.870;2023-08-06T13:09:15;100536.88;;;19.67;72.18
71361;BME280;59166;48.908;1.870;2023-08-06T13:14:16;100539.94;;;19.96;64.04
71361;BME280;59166;48.908;1.870;2023-08-06T13:19:17;100525.84;;;20.28;63.03
71361;BME280;59166;48.908;1.870;2023-08-06T13:24:19;100538.69;;;20.11;65.98
71361;BME280;59166;48.908;1.870;2023-08-06T13:29:19;100532.03;;;19.64;66.90
71361;BME280;59166;48.908;1.870;2023-08-06T13:34:20;100540.66;;;19.04;67.47
71361;BME280;59166;48.908;1.870;2023-08-06T13:39:22;100538.94;;;18.59;70.57
71361;BME280;59166;48.908;1.870;2023-08-06T13:44:23;100549.72;;;18.41;72.02
71361;BME280;59166;48.908;1.870;2023-08-06T13:49:23;100557.34;;;19.38;73.72
71361;BME280;59166;48.908;1.870;2023-08-06T13:54:25;100548.94;;;20.36;69.47
71361;BME280;59166;48.908;1.870;2023-08-06T13:59:26;100546.94;;;20.93;66.25
71361;BME280;59166;48.908;1.870;2023-08-06T14:04:26;100536.75;;;20.03;67.79
71361;BME280;59166;48.908;1.870;2023-08-06T14:09:28;100545.13;;;19.44;71.69
71361;BME280;59166;48.908;1.870;2023-08-06T14:14:29;100542.09;;;19.02;71.02
71361;BME280;59166;48.908;1.870;2023-08-06T14:19:30;100540.97;;;20.17;67.53
71361;BME280;59166;48.908;1.870;2023-08-06T14:24:32;100537.22;;;20.70;63.57
71361;BME280;59166;48.908;1.870;2023-08-06T14:29:32;100533.44;;;19.92;64.25
71361;BME280;59166;48.908;1.870;2023-08-06T14:34:33;100551.16;;;20.17;63.94
71361;BME280;59166;48.908;1.870;2023-08-06T14:39:35;100552.59;;;20.88;56.79
71361;BME280;59166;48.908;1.870;2023-08-06T14:44:36;100559.59;;;20.37;60.40
71361;BME280;59166;48.908;1.870;2023-08-06T14:49:37;100550.00;;;20.09;59.79
71361;BME280;59166;48.908;1.870;2023-08-06T14:54:40;100560.28;;;20.43;60.35
71361;BME280;59166;48.908;1.870;2023-08-06T14:59:40;100562.34;;;20.37;62.21
71361;BME280;59166;48.908;1.870;2023-08-06T15:04:41;100562.22;;;20.51;61.43
71361;BME280;59166;48.908;1.870;2023-08-06T15:09:43;100571.09;;;19.69;63.67
71361;BME280;59166;48.908;1.870;2023-08-06T15:14:44;100567.06;;;19.44;65.54
71361;BME280;59166;48.908;1.870;2023-08-06T15:19:45;100573.53;;;19.48;68.11
71361;BME280;59166;48.908;1.870;2023-08-06T15:24:47;100569.00;;;19.44;61.47
71361;BME280;59166;48.908;1.870;2023-08-06T15:29:48;100572.59;;;20.15;61.28
71361;BME280;59166;48.908;1.870;2023-08-06T15:34:49;100563.88;;;20.69;61.78
71361;BME280;59166;48.908;1.870;2023-08-06T15:39:51;100575.88;;;21.25;56.22
71361;BME280;59166;48.908;1.870;2023-08-06T15:44:52;100576.22;;;20.32;60.50
71361;BME280;59166;48.908;1.870;2023-08-06T15:49:53;100572.66;;;19.62;65.37
71361;BME280;59166;48.908;1.870;2023-08-06T15:54:55;100580.09;;;19.70;63.81
71361;BME280;59166;48.908;1.870;2023-08-06T15:59:56;100578.94;;;19.93;62.83
71361;BME280;59166;48.908;1.870;2023-08-06T16:04:59;100590.47;;;20.52;59.98
71361;BME280;59166;48.908;1.870;2023-08-06T16:10:01;100592.72;;;20.49;59.68
71361;BME280;59166;48.908;1.870;2023-08-06T16:15:02;100596.09;;;19.76;64.51
71361;BME280;59166;48.908;1.870;2023-08-06T16:20:04;100594.69;;;19.12;62.26
71361;BME280;59166;48.908;1.870;2023-08-06T16:25:07;100596.97;;;18.83;65.52
71361;BME280;59166;48.908;1.870;2023-08-06T16:30:09;100600.88;;;19.04;64.83
71361;BME280;59166;48.908;1.870;2023-08-06T16:35:10;100609.09;;;19.04;65.24
71361;BME280;59166;48.908;1.870;2023-08-06T16:40:12;100604.50;;;19.49;64.26
71361;BME280;59166;48.908;1.870;2023-08-06T16:45:13;100598.06;;;20.46;59.49
71361;BME280;59166;48.908;1.870;2023-08-06T16:50:13;100603.72;;;20.49;60.86
71361;BME280;59166;48.908;1.870;2023-08-06T16:55:16;100608.69;;;20.47;58.97
71361;BME280;59166;48.908;1.870;2023-08-06T17:00:17;100611.53;;;20.25;58.71
71361;BME280;59166;48.908;1.870;2023-08-06T17:05:18;100614.91;;;20.22;60.42
71361;BME280;59166;48.908;1.870;2023-08-06T17:10:20;100616.66;;;20.18;61.27
71361;BME280;59166;48.908;1.870;2023-08-06T17:15:21;100628.91;;;20.12;62.87
71361;BME280;59166;48.908;1.870;2023-08-06T17:20:22;100633.59;;;20.20;58.26
71361;BME280;59166;48.908;1.870;2023-08-06T17:25:25;100626.16;;;19.90;60.64
71361;BME280;59166;48.908;1.870;2023-08-06T17:30:26;100633.69;;;19.54;59.98
71361;BME280;59166;48.908;1.870;2023-08-06T17:35:27;100625.41;;;19.09;62.10
71361;BME280;59166;48.908;1.870;2023-08-06T17:40:29;100628.34;;;18.63;64.41
71361;BME280;59166;48.908;1.870;2023-08-06T17:45:30;100633.00;;;18.35;66.37
71361;BME280;59166;48.908;1.870;2023-08-06T17:50:31;100639.28;;;18.22;66.56
71361;BME280;59166;48.908;1.870;2023-08-06T17:55:34;100638.13;;;18.10;68.80
71361;BME280;59166;48.908;1.870;2023-08-06T18:00:34;100639.91;;;18.19;71.23
71361;BME280;59166;48.908;1.870;2023-08-06T18:05:35;100643.44;;;18.33;73.53
71361;BME280;59166;48.908;1.870;2023-08-06T18:10:38;100643.66;;;18.51;75.89
71361;BME280;59166;48.908;1.870;2023-08-06T18:15:38;100640.13;;;18.50;73.66
71361;BME280;59166;48.908;1.870;2023-08-06T18:20:39;100642.94;;;18.45;72.84
71361;BME280;59166;48.908;1.870;2023-08-06T18:25:42;100637.16;;;18.33;69.87
71361;BME280;59166;48.908;1.870;2023-08-06T18:30:42;100650.50;;;18.07;69.93
71361;BME280;59166;48.908;1.870;2023-08-06T18:35:44;100653.66;;;17.82;72.41
71361;BME280;59166;48.908;1.870;2023-08-06T18:40:46;100649.63;;;17.61;74.00
71361;BME280;59166;48.908;1.870;2023-08-06T18:45:47;100659.69;;;17.46;77.34
71361;BME280;59166;48.908;1.870;2023-08-06T18:50:48;100651.75;;;17.31;80.28
71361;BME280;59166;48.908;1.870;2023-08-06T18:55:50;100659.22;;;17.26;78.12
71361;BME280;59166;48.908;1.870;2023-08-06T19:00:55;100663.22;;;17.10;81.60
71361;BME280;59166;48.908;1.870;2023-08-06T19:05:58;100661.53;;;16.95;81.36
71361;BME280;59166;48.908;1.870;2023-08-06T19:11:01;100660.91;;;16.79;79.54
71361;BME280;59166;48.908;1.870;2023-08-06T19:16:02;100665.91;;;16.72;77.20
71361;BME280;59166;48.908;1.870;2023-08-06T19:21:02;100670.16;;;16.60;79.11
71361;BME280;59166;48.908;1.870;2023-08-06T19:26:06;100678.22;;;16.46;80.38
71361;BME280;59166;48.908;1.870;2023-08-06T19:31:07;100685.78;;;16.30;82.77
71361;BME280;59166;48.908;1.870;2023-08-06T19:36:07;100689.69;;;16.19;82.54
71361;BME280;59166;48.908;1.870;2023-08-06T19:41:10;100689.53;;;16.06;84.05
71361;BME280;59166;48.908;1.870;2023-08-06T19:46:11;100699.66;;;16.00;83.49
71361;BME280;59166;48.908;1.870;2023-08-06T19:51:11;100695.13;;;15.90;83.57
71361;BME280;59166;48.908;1.870;2023-08-06T19:56:14;100704.75;;;15.78;85.09
71361;BME280;59166;48.908;1.870;2023-08-06T20:01:15;100712.72;;;15.69;85.94
71361;BME280;59166;48.908;1.870;2023-08-06T20:06:16;100715.81;;;15.58;87.14
71361;BME280;59166;48.908;1.870;2023-08-06T20:11:18;100730.56;;;15.52;90.03
71361;BME280;59166;48.908;1.870;2023-08-06T20:16:19;100730.03;;;15.50;91.62
71361;BME280;59166;48.908;1.870;2023-08-06T20:21:20;100727.31;;;15.44;91.12
71361;BME280;59166;48.908;1.870;2023-08-06T20:26:22;100736.19;;;15.21;91.83
71361;BME280;59166;48.908;1.870;2023-08-06T20:31:23;100734.59;;;15.15;92.72
71361;BME280;59166;48.908;1.870;2023-08-06T20:36:24;100739.00;;;15.06;91.99
71361;BME280;59166;48.908;1.870;2023-08-06T20:41:26;100752.91;;;14.95;94.37
71361;BME280;59166;48.908;1.870;2023-08-06T20:46:27;100746.63;;;14.94;95.52
71361;BME280;59166;48.908;1.870;2023-08-06T20:51:28;100750.75;;;14.81;96.79
71361;BME280;59166;48.908;1.870;2023-08-06T20:56:30;100754.03;;;14.73;97.26
71361;BME280;59166;48.908;1.870;2023-08-06T21:01:31;100753.22;;;14.63;96.90
71361;BME280;59166;48.908;1.870;2023-08-06T21:06:32;100750.00;;;14.56;97.39
71361;BME280;59166;48.908;1.870;2023-08-06T21:11:34;100751.91;;;14.55;98.71
71361;BME280;59166;48.908;1.870;2023-08-06T21:16:35;100756.28;;;14.51;99.23
71361;BME280;59166;48.908;1.870;2023-08-06T21:21:36;100756.56;;;14.45;99.42
71361;BME280;59166;48.908;1.870;2023-08-06T21:26:38;100760.91;;;14.35;99.30
71361;BME280;59166;48.908;1.870;2023-08-06T21:31:39;100763.09;;;14.33;99.68
71361;BME280;59166;48.908;1.870;2023-08-06T21:36:40;100766.34;;;14.30;100.00
71361;BME280;59166;48.908;1.870;2023-08-06T21:41:42;100765.81;;;14.23;99.40
71361;BME280;59166;48.908;1.870;2023-08-06T21:46:43;100762.03;;;14.14;100.00
71361;BME280;59166;48.908;1.870;2023-08-06T21:51:43;100761.47;;;14.07;99.86
71361;BME280;59166;48.908;1.870;2023-08-06T21:56:46;100770.72;;;13.96;100.00
71361;BME280;59166;48.908;1.870;2023-08-06T22:01:46;100756.31;;;13.90;100.00
71361;BME280;59166;48.908;1.870;2023-08-06T22:06:47;100762.81;;;13.89;100.00
71361;BME280;59166;48.908;1.870;2023-08-06T22:11:50;100764.19;;;13.77;100.00
71361;BME280;59166;48.908;1.870;2023-08-06T22:16:51;100761.44;;;13.72;100.00
71361;BME280;59166;48.908;1.870;2023-08-06T22:21:52;100769.34;;;13.73;100.00
71361;BME280;59166;48.908;1.870;2023-08-06T22:26:54;100764.97;;;13.72;100.00
71361;BME280;59166;48.908;1.870;2023-08-06T22:31:55;100758.19;;;13.75;100.00
71361;BME280;59166;48.908;1.870;2023-08-06T22:36:56;100758.19;;;13.75;100.00
71361;BME280;59166;48.908;1.870;2023-08-06T22:41:58;100756.03;;;13.77;100.00
71361;BME280;59166;48.908;1.870;2023-08-06T22:46:59;100760.09;;;13.79;100.00
71361;BME280;59166;48.908;1.870;2023-08-06T22:52:00;100764.19;;;13.77;100.00
71361;BME280;59166;48.908;1.870;2023-08-06T22:57:02;100761.19;;;13.73;100.00
71361;BME280;59166;48.908;1.870;2023-08-06T23:02:04;100773.09;;;13.67;100.00
71361;BME280;59166;48.908;1.870;2023-08-06T23:07:05;100775.53;;;13.64;100.00
71361;BME280;59166;48.908;1.870;2023-08-06T23:12:08;100766.28;;;13.55;100.00
71361;BME280;59166;48.908;1.870;2023-08-06T23:17:09;100771.16;;;13.53;100.00
71361;BME280;59166;48.908;1.870;2023-08-06T23:22:10;100776.59;;;13.53;100.00
71361;BME280;59166;48.908;1.870;2023-08-06T23:27:13;100770.59;;;13.46;100.00
71361;BME280;59166;48.908;1.870;2023-08-06T23:32:13;100773.28;;;13.35;100.00
71361;BME280;59166;48.908;1.870;2023-08-06T23:37:14;100781.16;;;13.27;100.00
71361;BME280;59166;48.908;1.870;2023-08-06T23:42:17;100777.56;;;13.21;100.00
71361;BME280;59166;48.908;1.870;2023-08-06T23:47:18;100776.22;;;13.14;100.00
71361;BME280;59166;48.908;1.870;2023-08-06T23:52:19;100785.69;;;13.06;100.00
71361;BME280;59166;48.908;1.870;2023-08-06T23:57:21;100788.06;;;12.98;100.00
